sensor_id;sensor_type;location;lat;lon;timestamp;temperature;humidity
2955;DHT22;1487;51.470;6.938;2023-03-16T00:02:18;3.70;99.90
2955;DHT22;1487;51.470;6.938;2023-03-16T00:04:45;3.70;99.90
2955;DHT22;1487;51.470;6.938;2023-03-16T00:07:14;3.70;99.90
2955;DHT22;1487;51.470;6.938;2023-03-16T00:09:41;3.70;99.90
2955;DHT22;1487;51.470;6.938;2023-03-16T00:12:11;3.70;99.90
2955;DHT22;1487;51.470;6.938;2023-03-16T00:14:40;3.70;99.90
2955;DHT22;1487;51.470;6.938;2023-03-16T00:17:08;3.70;99.90
2955;DHT22;1487;51.470;6.938;2023-03-16T00:20:14;3.70;99.90
2955;DHT22;1487;51.470;6.938;2023-03-16T00:22:44;3.60;99.90
2955;DHT22;1487;51.470;6.938;2023-03-16T00:25:12;3.70;99.90
2955;DHT22;1487;51.470;6.938;2023-03-16T00:27:40;3.70;99.90
2955;DHT22;1487;51.470;6.938;2023-03-16T00:30:07;3.80;99.90
2955;DHT22;1487;51.470;6.938;2023-03-16T00:32:36;3.80;99.90
2955;DHT22;1487;51.470;6.938;2023-03-16T00:35:04;3.80;99.90
2955;DHT22;1487;51.470;6.938;2023-03-16T00:37:31;3.80;99.90
2955;DHT22;1487;51.470;6.938;2023-03-16T00:40:00;3.80;99.90
2955;DHT22;1487;51.470;6.938;2023-03-16T00:42:28;3.80;99.90
2955;DHT22;1487;51.470;6.938;2023-03-16T00:44:56;3.80;99.90
2955;DHT22;1487;51.470;6.938;2023-03-16T00:47:24;3.80;99.90
2955;DHT22;1487;51.470;6.938;2023-03-16T00:49:51;3.80;99.90
2955;DHT22;1487;51.470;6.938;2023-03-16T00:52:18;3.80;99.90
2955;DHT22;1487;51.470;6.938;2023-03-16T00:54:47;3.70;99.90
2955;DHT22;1487;51.470;6.938;2023-03-16T00:57:17;3.70;99.90
2955;DHT22;1487;51.470;6.938;2023-03-16T00:59:44;3.70;99.90
2955;DHT22;1487;51.470;6.938;2023-03-16T01:02:12;3.70;99.90
2955;DHT22;1487;51.470;6.938;2023-03-16T01:04:40;3.70;99.90
2955;DHT22;1487;51.470;6.938;2023-03-16T01:07:08;3.70;99.90
2955;DHT22;1487;51.470;6.938;2023-03-16T01:09:35;3.70;99.90
2955;DHT22;1487;51.470;6.938;2023-03-16T01:12:03;3.70;99.90
2955;DHT22;1487;51.470;6.938;2023-03-16T01:14:32;3.70;99.90
2955;DHT22;1487;51.470;6.938;2023-03-16T01:17:00;3.80;99.90
2955;DHT22;1487;51.470;6.938;2023-03-16T01:19:27;3.80;99.90
2955;DHT22;1487;51.470;6.938;2023-03-16T01:21:54;3.80;99.90
2955;DHT22;1487;51.470;6.938;2023-03-16T01:24:21;3.80;99.90
2955;DHT22;1487;51.470;6.938;2023-03-16T01:26:48;3.80;99.90
2955;DHT22;1487;51.470;6.938;2023-03-16T01:29:15;3.80;99.90
2955;DHT22;1487;51.470;6.938;2023-03-16T01:31:43;3.90;99.90
2955;DHT22;1487;51.470;6.938;2023-03-16T01:34:10;3.90;99.90
2955;DHT22;1487;51.470;6.938;2023-03-16T01:36:41;3.90;99.90
2955;DHT22;1487;51.470;6.938;2023-03-16T01:39:08;3.90;99.90
2955;DHT22;1487;51.470;6.938;2023-03-16T01:41:35;3.90;99.90
2955;DHT22;1487;51.470;6.938;2023-03-16T01:44:02;3.90;99.90
2955;DHT22;1487;51.470;6.938;2023-03-16T01:46:29;3.90;99.90
2955;DHT22;1487;51.470;6.938;2023-03-16T01:49:01;3.90;99.90
2955;DHT22;1487;51.470;6.938;2023-03-16T01:51:35;3.90;99.90
2955;DHT22;1487;51.470;6.938;2023-03-16T01:54:07;3.90;99.90
2955;DHT22;1487;51.470;6.938;2023-03-16T01:56:39;3.90;99.90
2955;DHT22;1487;51.470;6.938;2023-03-16T01:59:10;3.90;99.90
2955;DHT22;1487;51.470;6.938;2023-03-16T02:01:39;3.90;99.90
2955;DHT22;1487;51.470;6.938;2023-03-16T02:04:15;3.90;99.90
2955;DHT22;1487;51.470;6.938;2023-03-16T02:06:43;4.00;99.90
2955;DHT22;1487;51.470;6.938;2023-03-16T02:09:11;4.00;99.90
2955;DHT22;1487;51.470;6.938;2023-03-16T02:11:39;4.00;99.90
2955;DHT22;1487;51.470;6.938;2023-03-16T02:14:09;4.00;99.90
2955;DHT22;1487;51.470;6.938;2023-03-16T02:16:37;4.00;99.90
2955;DHT22;1487;51.470;6.938;2023-03-16T02:19:10;4.00;99.90
2955;DHT22;1487;51.470;6.938;2023-03-16T02:21:43;4.10;99.90
2955;DHT22;1487;51.470;6.938;2023-03-16T02:24:13;4.00;99.90
2955;DHT22;1487;51.470;6.938;2023-03-16T02:26:44;4.00;99.90
2955;DHT22;1487;51.470;6.938;2023-03-16T02:29:19;4.00;99.90
2955;DHT22;1487;51.470;6.938;2023-03-16T02:31:52;4.00;99.90
2955;DHT22;1487;51.470;6.938;2023-03-16T02:34:19;4.00;99.90
2955;DHT22;1487;51.470;6.938;2023-03-16T02:36:48;4.00;99.90
2955;DHT22;1487;51.470;6.938;2023-03-16T02:39:16;4.00;99.90
2955;DHT22;1487;51.470;6.938;2023-03-16T02:41:44;4.00;99.90
2955;DHT22;1487;51.470;6.938;2023-03-16T02:44:13;4.00;99.90
2955;DHT22;1487;51.470;6.938;2023-03-16T02:46:42;4.00;99.90
2955;DHT22;1487;51.470;6.938;2023-03-16T02:49:14;4.10;99.90
2955;DHT22;1487;51.470;6.938;2023-03-16T02:51:43;4.10;99.90
2955;DHT22;1487;51.470;6.938;2023-03-16T02:54:11;4.10;99.90
2955;DHT22;1487;51.470;6.938;2023-03-16T02:56:38;4.00;99.90
2955;DHT22;1487;51.470;6.938;2023-03-16T02:59:05;4.10;99.90
2955;DHT22;1487;51.470;6.938;2023-03-16T03:01:31;4.10;99.90
2955;DHT22;1487;51.470;6.938;2023-03-16T03:03:59;4.10;99.90
2955;DHT22;1487;51.470;6.938;2023-03-16T03:06:27;4.10;99.90
2955;DHT22;1487;51.470;6.938;2023-03-16T03:08:54;4.10;99.90
2955;DHT22;1487;51.470;6.938;2023-03-16T03:11:21;4.10;99.90
2955;DHT22;1487;51.470;6.938;2023-03-16T03:13:48;4.10;99.90
2955;DHT22;1487;51.470;6.938;2023-03-16T03:16:15;4.10;99.90
2955;DHT22;1487;51.470;6.938;2023-03-16T03:18:42;4.10;99.90
2955;DHT22;1487;51.470;6.938;2023-03-16T03:21:09;4.10;99.90
2955;DHT22;1487;51.470;6.938;2023-03-16T03:23:37;4.10;99.90
2955;DHT22;1487;51.470;6.938;2023-03-16T03:26:05;4.10;99.90
2955;DHT22;1487;51.470;6.938;2023-03-16T03:28:32;4.10;99.90
2955;DHT22;1487;51.470;6.938;2023-03-16T03:30:59;4.20;99.90
2955;DHT22;1487;51.470;6.938;2023-03-16T03:33:27;4.20;99.90
2955;DHT22;1487;51.470;6.938;2023-03-16T03:35:54;4.20;99.90
2955;DHT22;1487;51.470;6.938;2023-03-16T03:38:22;4.20;99.90
2955;DHT22;1487;51.470;6.938;2023-03-16T03:40:51;4.20;99.90
2955;DHT22;1487;51.470;6.938;2023-03-16T03:43:18;4.20;99.90
2955;DHT22;1487;51.470;6.938;2023-03-16T03:45:45;4.20;99.90
2955;DHT22;1487;51.470;6.938;2023-03-16T03:48:12;4.20;99.90
2955;DHT22;1487;51.470;6.938;2023-03-16T03:50:39;4.30;99.90
2955;DHT22;1487;51.470;6.938;2023-03-16T03:53:06;4.30;99.90
2955;DHT22;1487;51.470;6.938;2023-03-16T03:55:33;4.30;99.90
2955;DHT22;1487;51.470;6.938;2023-03-16T03:58:01;4.30;99.90
2955;DHT22;1487;51.470;6.938;2023-03-16T04:00:28;4.40;99.90
2955;DHT22;1487;51.470;6.938;2023-03-16T04:02:55;4.40;99.90
2955;DHT22;1487;51.470;6.938;2023-03-16T04:05:22;4.40;99.90
2955;DHT22;1487;51.470;6.938;2023-03-16T04:07:51;4.40;99.90
2955;DHT22;1487;51.470;6.938;2023-03-16T04:10:22;4.40;99.90
2955;DHT22;1487;51.470;6.938;2023-03-16T04:12:49;4.40;99.90
2955;DHT22;1487;51.470;6.938;2023-03-16T04:15:17;4.40;99.90
2955;DHT22;1487;51.470;6.938;2023-03-16T04:17:44;4.40;99.90
2955;DHT22;1487;51.470;6.938;2023-03-16T04:20:12;4.40;99.90
2955;DHT22;1487;51.470;6.938;2023-03-16T04:22:40;4.40;99.90
2955;DHT22;1487;51.470;6.938;2023-03-16T04:25:08;4.40;99.90
2955;DHT22;1487;51.470;6.938;2023-03-16T04:27:35;4.40;99.90
2955;DHT22;1487;51.470;6.938;2023-03-16T04:30:02;4.40;99.90
2955;DHT22;1487;51.470;6.938;2023-03-16T04:32:31;4.40;99.90
2955;DHT22;1487;51.470;6.938;2023-03-16T04:34:58;4.40;99.90
2955;DHT22;1487;51.470;6.938;2023-03-16T04:37:26;4.40;99.90
2955;DHT22;1487;51.470;6.938;2023-03-16T04:39:53;4.30;99.90
2955;DHT22;1487;51.470;6.938;2023-03-16T04:42:21;4.30;99.90
2955;DHT22;1487;51.470;6.938;2023-03-16T04:44:47;4.30;99.90
2955;DHT22;1487;51.470;6.938;2023-03-16T04:47:15;4.30;99.90
2955;DHT22;1487;51.470;6.938;2023-03-16T04:49:43;4.30;99.90
2955;DHT22;1487;51.470;6.938;2023-03-16T04:52:11;4.30;99.90
2955;DHT22;1487;51.470;6.938;2023-03-16T04:54:38;4.30;99.90
2955;DHT22;1487;51.470;6.938;2023-03-16T04:57:05;4.30;99.90
2955;DHT22;1487;51.470;6.938;2023-03-16T04:59:32;4.30;99.90
2955;DHT22;1487;51.470;6.938;2023-03-16T05:01:59;4.30;99.90
2955;DHT22;1487;51.470;6.938;2023-03-16T05:04:26;4.30;99.90
2955;DHT22;1487;51.470;6.938;2023-03-16T05:06:54;4.30;99.90
2955;DHT22;1487;51.470;6.938;2023-03-16T05:09:21;4.30;99.90
2955;DHT22;1487;51.470;6.938;2023-03-16T05:11:48;4.40;99.90
2955;DHT22;1487;51.470;6.938;2023-03-16T05:14:15;4.40;99.90
2955;DHT22;1487;51.470;6.938;2023-03-16T05:16:42;4.40;99.90
2955;DHT22;1487;51.470;6.938;2023-03-16T05:19:08;4.50;99.90
2955;DHT22;1487;51.470;6.938;2023-03-16T05:21:35;4.50;99.90
2955;DHT22;1487;51.470;6.938;2023-03-16T05:24:05;4.50;99.90
2955;DHT22;1487;51.470;6.938;2023-03-16T05:26:32;4.50;99.90
2955;DHT22;1487;51.470;6.938;2023-03-16T05:28:59;4.50;99.90
2955;DHT22;1487;51.470;6.938;2023-03-16T05:31:26;4.50;99.90
2955;DHT22;1487;51.470;6.938;2023-03-16T05:33:57;4.50;99.90
2955;DHT22;1487;51.470;6.938;2023-03-16T05:36:24;4.50;99.90
2955;DHT22;1487;51.470;6.938;2023-03-16T05:38:51;4.50;99.90
2955;DHT22;1487;51.470;6.938;2023-03-16T05:41:19;4.50;99.90
2955;DHT22;1487;51.470;6.938;2023-03-16T05:43:47;4.50;99.90
2955;DHT22;1487;51.470;6.938;2023-03-16T05:46:14;4.50;99.90
2955;DHT22;1487;51.470;6.938;2023-03-16T05:48:40;4.50;99.90
2955;DHT22;1487;51.470;6.938;2023-03-16T05:51:07;4.50;99.90
2955;DHT22;1487;51.470;6.938;2023-03-16T05:53:34;4.50;99.90
2955;DHT22;1487;51.470;6.938;2023-03-16T05:56:01;4.60;99.90
2955;DHT22;1487;51.470;6.938;2023-03-16T05:58:29;4.60;99.90
2955;DHT22;1487;51.470;6.938;2023-03-16T06:00:58;4.50;99.90
2955;DHT22;1487;51.470;6.938;2023-03-16T06:03:26;4.50;99.90
2955;DHT22;1487;51.470;6.938;2023-03-16T06:05:53;4.50;99.90
2955;DHT22;1487;51.470;6.938;2023-03-16T06:08:20;4.50;99.90
2955;DHT22;1487;51.470;6.938;2023-03-16T06:10:47;4.60;99.90
2955;DHT22;1487;51.470;6.938;2023-03-16T06:13:14;4.60;99.90
2955;DHT22;1487;51.470;6.938;2023-03-16T06:15:42;4.60;99.90
2955;DHT22;1487;51.470;6.938;2023-03-16T06:18:09;4.60;99.90
2955;DHT22;1487;51.470;6.938;2023-03-16T06:20:36;4.60;99.90
2955;DHT22;1487;51.470;6.938;2023-03-16T06:23:03;4.70;99.90
2955;DHT22;1487;51.470;6.938;2023-03-16T06:25:30;4.70;99.90
2955;DHT22;1487;51.470;6.938;2023-03-16T06:27:56;4.80;99.90
2955;DHT22;1487;51.470;6.938;2023-03-16T06:30:23;4.80;99.90
2955;DHT22;1487;51.470;6.938;2023-03-16T06:32:52;4.90;99.90
2955;DHT22;1487;51.470;6.938;2023-03-16T06:35:18;4.90;99.90
2955;DHT22;1487;51.470;6.938;2023-03-16T06:37:45;5.00;99.90
2955;DHT22;1487;51.470;6.938;2023-03-16T06:40:12;5.00;99.90
2955;DHT22;1487;51.470;6.938;2023-03-16T06:42:39;5.00;99.90
2955;DHT22;1487;51.470;6.938;2023-03-16T06:45:07;5.00;99.90
2955;DHT22;1487;51.470;6.938;2023-03-16T06:47:34;5.00;99.90
2955;DHT22;1487;51.470;6.938;2023-03-16T06:50:03;5.10;99.90
2955;DHT22;1487;51.470;6.938;2023-03-16T06:52:30;5.10;99.90
2955;DHT22;1487;51.470;6.938;2023-03-16T06:54:57;5.10;99.90
2955;DHT22;1487;51.470;6.938;2023-03-16T06:57:24;5.20;99.90
2955;DHT22;1487;51.470;6.938;2023-03-16T06:59:51;5.20;99.90
2955;DHT22;1487;51.470;6.938;2023-03-16T07:02:17;5.30;99.90
2955;DHT22;1487;51.470;6.938;2023-03-16T07:04:44;5.30;99.90
2955;DHT22;1487;51.470;6.938;2023-03-16T07:07:13;5.40;99.90
2955;DHT22;1487;51.470;6.938;2023-03-16T07:09:39;5.50;99.90
2955;DHT22;1487;51.470;6.938;2023-03-16T07:12:07;5.80;99.90
2955;DHT22;1487;51.470;6.938;2023-03-16T07:14:34;6.00;99.90
2955;DHT22;1487;51.470;6.938;2023-03-16T07:17:01;6.30;99.90
2955;DHT22;1487;51.470;6.938;2023-03-16T07:19:28;6.40;99.90
2955;DHT22;1487;51.470;6.938;2023-03-16T07:21:56;6.70;99.90
2955;DHT22;1487;51.470;6.938;2023-03-16T07:24:24;6.80;99.90
2955;DHT22;1487;51.470;6.938;2023-03-16T07:26:51;6.90;99.90
2955;DHT22;1487;51.470;6.938;2023-03-16T07:29:17;6.90;99.90
2955;DHT22;1487;51.470;6.938;2023-03-16T07:31:44;6.70;99.90
2955;DHT22;1487;51.470;6.938;2023-03-16T07:34:11;6.70;99.90
2955;DHT22;1487;51.470;6.938;2023-03-16T07:36:38;6.70;99.90
2955;DHT22;1487;51.470;6.938;2023-03-16T07:39:05;6.80;99.90
2955;DHT22;1487;51.470;6.938;2023-03-16T07:41:33;6.80;99.90
2955;DHT22;1487;51.470;6.938;2023-03-16T07:44:00;6.70;99.90
2955;DHT22;1487;51.470;6.938;2023-03-16T07:46:26;6.50;99.90
2955;DHT22;1487;51.470;6.938;2023-03-16T07:48:53;6.50;99.90
2955;DHT22;1487;51.470;6.938;2023-03-16T07:51:20;6.80;99.90
2955;DHT22;1487;51.470;6.938;2023-03-16T07:53:47;6.80;99.90
2955;DHT22;1487;51.470;6.938;2023-03-16T07:56:14;7.00;99.90
2955;DHT22;1487;51.470;6.938;2023-03-16T07:58:42;7.10;99.90
2955;DHT22;1487;51.470;6.938;2023-03-16T08:01:09;7.10;99.90
2955;DHT22;1487;51.470;6.938;2023-03-16T08:03:36;7.00;99.90
2955;DHT22;1487;51.470;6.938;2023-03-16T08:06:04;6.80;99.90
2955;DHT22;1487;51.470;6.938;2023-03-16T08:08:30;6.60;99.90
2955;DHT22;1487;51.470;6.938;2023-03-16T08:10:58;6.50;99.90
2955;DHT22;1487;51.470;6.938;2023-03-16T08:13:25;6.40;99.90
2955;DHT22;1487;51.470;6.938;2023-03-16T08:15:54;6.20;99.90
2955;DHT22;1487;51.470;6.938;2023-03-16T08:18:23;6.30;99.90
2955;DHT22;1487;51.470;6.938;2023-03-16T08:20:50;6.30;99.90
2955;DHT22;1487;51.470;6.938;2023-03-16T08:23:17;6.20;99.90
2955;DHT22;1487;51.470;6.938;2023-03-16T08:25:44;6.20;99.90
2955;DHT22;1487;51.470;6.938;2023-03-16T08:28:11;6.20;99.90
2955;DHT22;1487;51.470;6.938;2023-03-16T08:30:43;6.20;99.90
2955;DHT22;1487;51.470;6.938;2023-03-16T08:33:11;6.00;99.90
2955;DHT22;1487;51.470;6.938;2023-03-16T08:35:40;6.00;99.90
2955;DHT22;1487;51.470;6.938;2023-03-16T08:38:09;6.10;99.90
2955;DHT22;1487;51.470;6.938;2023-03-16T08:40:36;6.10;99.90
2955;DHT22;1487;51.470;6.938;2023-03-16T08:43:03;6.10;99.90
2955;DHT22;1487;51.470;6.938;2023-03-16T08:45:29;6.10;99.90
2955;DHT22;1487;51.470;6.938;2023-03-16T08:47:57;6.00;99.90
2955;DHT22;1487;51.470;6.938;2023-03-16T08:50:25;5.90;99.90
2955;DHT22;1487;51.470;6.938;2023-03-16T08:52:52;6.00;99.90
2955;DHT22;1487;51.470;6.938;2023-03-16T08:55:19;6.10;99.90
2955;DHT22;1487;51.470;6.938;2023-03-16T08:57:46;6.10;99.90
2955;DHT22;1487;51.470;6.938;2023-03-16T09:00:14;6.00;99.90
2955;DHT22;1487;51.470;6.938;2023-03-16T09:02:42;6.00;99.90
2955;DHT22;1487;51.470;6.938;2023-03-16T09:05:11;6.10;99.90
2955;DHT22;1487;51.470;6.938;2023-03-16T09:07:40;6.20;99.90
2955;DHT22;1487;51.470;6.938;2023-03-16T09:10:09;6.20;99.90
2955;DHT22;1487;51.470;6.938;2023-03-16T09:12:39;6.30;99.90
2955;DHT22;1487;51.470;6.938;2023-03-16T09:15:08;6.30;99.90
2955;DHT22;1487;51.470;6.938;2023-03-16T09:17:36;6.40;99.90
2955;DHT22;1487;51.470;6.938;2023-03-16T09:20:05;6.50;99.90
2955;DHT22;1487;51.470;6.938;2023-03-16T09:22:34;6.60;99.90
2955;DHT22;1487;51.470;6.938;2023-03-16T09:25:02;6.70;99.90
2955;DHT22;1487;51.470;6.938;2023-03-16T09:27:30;7.00;99.90
2955;DHT22;1487;51.470;6.938;2023-03-16T09:29:57;7.40;99.90
2955;DHT22;1487;51.470;6.938;2023-03-16T09:32:25;7.70;99.90
2955;DHT22;1487;51.470;6.938;2023-03-16T09:34:53;7.90;99.90
2955;DHT22;1487;51.470;6.938;2023-03-16T09:37:20;7.90;99.90
2955;DHT22;1487;51.470;6.938;2023-03-16T09:39:47;8.00;99.90
2955;DHT22;1487;51.470;6.938;2023-03-16T09:42:18;8.00;99.90
2955;DHT22;1487;51.470;6.938;2023-03-16T09:44:58;8.10;99.90
2955;DHT22;1487;51.470;6.938;2023-03-16T09:47:32;7.90;99.90
2955;DHT22;1487;51.470;6.938;2023-03-16T09:50:03;8.00;99.90
2955;DHT22;1487;51.470;6.938;2023-03-16T09:52:36;8.20;99.90
2955;DHT22;1487;51.470;6.938;2023-03-16T09:55:09;8.50;99.90
2955;DHT22;1487;51.470;6.938;2023-03-16T09:57:41;8.70;99.90
2955;DHT22;1487;51.470;6.938;2023-03-16T10:00:17;8.60;99.90
2955;DHT22;1487;51.470;6.938;2023-03-16T10:02:57;8.30;99.90
2955;DHT22;1487;51.470;6.938;2023-03-16T10:05:26;8.30;99.90
2955;DHT22;1487;51.470;6.938;2023-03-16T10:08:01;8.50;99.90
2955;DHT22;1487;51.470;6.938;2023-03-16T10:10:54;8.80;99.90
2955;DHT22;1487;51.470;6.938;2023-03-16T10:13:33;8.50;99.90
2955;DHT22;1487;51.470;6.938;2023-03-16T10:16:06;8.30;99.90
2955;DHT22;1487;51.470;6.938;2023-03-16T10:18:40;8.20;99.90
2955;DHT22;1487;51.470;6.938;2023-03-16T10:21:11;8.10;99.90
2955;DHT22;1487;51.470;6.938;2023-03-16T10:23:39;8.00;99.90
2955;DHT22;1487;51.470;6.938;2023-03-16T10:26:12;8.00;99.90
2955;DHT22;1487;51.470;6.938;2023-03-16T10:28:40;8.10;99.90
2955;DHT22;1487;51.470;6.938;2023-03-16T10:31:11;8.30;99.90
2955;DHT22;1487;51.470;6.938;2023-03-16T10:33:38;8.30;99.90
2955;DHT22;1487;51.470;6.938;2023-03-16T10:36:12;8.30;99.90
2955;DHT22;1487;51.470;6.938;2023-03-16T10:38:42;8.20;99.90
2955;DHT22;1487;51.470;6.938;2023-03-16T10:41:24;8.30;99.90
2955;DHT22;1487;51.470;6.938;2023-03-16T10:43:56;8.20;99.90
2955;DHT22;1487;51.470;6.938;2023-03-16T10:46:24;8.30;99.90
2955;DHT22;1487;51.470;6.938;2023-03-16T10:48:53;8.40;99.90
2955;DHT22;1487;51.470;6.938;2023-03-16T10:51:26;8.50;99.90
2955;DHT22;1487;51.470;6.938;2023-03-16T10:53:57;8.70;99.90
2955;DHT22;1487;51.470;6.938;2023-03-16T10:56:32;8.90;99.90
2955;DHT22;1487;51.470;6.938;2023-03-16T10:59:12;9.10;99.90
2955;DHT22;1487;51.470;6.938;2023-03-16T11:01:44;9.20;99.90
2955;DHT22;1487;51.470;6.938;2023-03-16T11:04:14;9.40;99.90
2955;DHT22;1487;51.470;6.938;2023-03-16T11:06:48;9.60;99.90
2955;DHT22;1487;51.470;6.938;2023-03-16T11:09:19;9.90;99.90
2955;DHT22;1487;51.470;6.938;2023-03-16T11:11:48;10.00;99.90
2955;DHT22;1487;51.470;6.938;2023-03-16T11:14:19;10.10;99.90
2955;DHT22;1487;51.470;6.938;2023-03-16T11:16:50;10.40;99.90
2955;DHT22;1487;51.470;6.938;2023-03-16T11:19:22;10.60;99.90
2955;DHT22;1487;51.470;6.938;2023-03-16T11:21:55;10.80;99.90
2955;DHT22;1487;51.470;6.938;2023-03-16T11:24:26;10.90;98.50
2955;DHT22;1487;51.470;6.938;2023-03-16T11:26:57;11.30;97.20
2955;DHT22;1487;51.470;6.938;2023-03-16T11:29:33;12.00;93.80
2955;DHT22;1487;51.470;6.938;2023-03-16T11:32:04;12.30;90.80
2955;DHT22;1487;51.470;6.938;2023-03-16T11:34:35;12.50;86.60
2955;DHT22;1487;51.470;6.938;2023-03-16T11:37:11;12.70;86.60
2955;DHT22;1487;51.470;6.938;2023-03-16T11:39:47;13.50;82.30
2955;DHT22;1487;51.470;6.938;2023-03-16T11:42:29;13.90;79.50
2955;DHT22;1487;51.470;6.938;2023-03-16T11:45:04;14.30;75.40
2955;DHT22;1487;51.470;6.938;2023-03-16T11:48:08;14.80;76.40
2955;DHT22;1487;51.470;6.938;2023-03-16T11:50:52;15.50;73.30
2955;DHT22;1487;51.470;6.938;2023-03-16T11:53:33;15.70;67.60
2955;DHT22;1487;51.470;6.938;2023-03-16T11:56:11;15.60;68.30
2955;DHT22;1487;51.470;6.938;2023-03-16T11:59:00;15.40;65.60
2955;DHT22;1487;51.470;6.938;2023-03-16T12:01:38;15.20;66.60
2955;DHT22;1487;51.470;6.938;2023-03-16T12:04:20;15.20;67.70
2955;DHT22;1487;51.470;6.938;2023-03-16T12:07:07;16.20;66.10
2955;DHT22;1487;51.470;6.938;2023-03-16T12:12:46;15.60;62.70
2955;DHT22;1487;51.470;6.938;2023-03-16T12:15:31;14.20;64.60
2955;DHT22;1487;51.470;6.938;2023-03-16T12:18:03;13.90;66.20
2955;DHT22;1487;51.470;6.938;2023-03-16T12:20:37;13.10;66.80
2955;DHT22;1487;51.470;6.938;2023-03-16T12:23:11;13.10;68.50
2955;DHT22;1487;51.470;6.938;2023-03-16T12:25:43;13.10;68.80
2955;DHT22;1487;51.470;6.938;2023-03-16T12:28:19;13.00;69.80
2955;DHT22;1487;51.470;6.938;2023-03-16T12:30:55;12.70;69.70
2955;DHT22;1487;51.470;6.938;2023-03-16T12:33:44;12.50;70.90
2955;DHT22;1487;51.470;6.938;2023-03-16T12:36:43;12.30;73.70
2955;DHT22;1487;51.470;6.938;2023-03-16T12:39:14;12.00;72.70
2955;DHT22;1487;51.470;6.938;2023-03-16T12:41:55;11.50;73.00
2955;DHT22;1487;51.470;6.938;2023-03-16T12:44:32;11.30;74.50
2955;DHT22;1487;51.470;6.938;2023-03-16T12:47:06;11.30;75.90
2955;DHT22;1487;51.470;6.938;2023-03-16T12:49:39;11.30;76.00
2955;DHT22;1487;51.470;6.938;2023-03-16T12:52:08;11.30;77.20
2955;DHT22;1487;51.470;6.938;2023-03-16T12:54:48;11.40;77.20
2955;DHT22;1487;51.470;6.938;2023-03-16T12:57:16;11.30;77.10
2955;DHT22;1487;51.470;6.938;2023-03-16T12:59:45;11.20;77.10
2955;DHT22;1487;51.470;6.938;2023-03-16T13:02:16;11.40;77.80
2955;DHT22;1487;51.470;6.938;2023-03-16T13:04:47;11.40;78.60
2955;DHT22;1487;51.470;6.938;2023-03-16T13:07:17;11.50;78.70
2955;DHT22;1487;51.470;6.938;2023-03-16T13:09:50;11.30;78.60
2955;DHT22;1487;51.470;6.938;2023-03-16T13:12:22;11.10;79.20
2955;DHT22;1487;51.470;6.938;2023-03-16T13:14:50;11.20;80.40
2955;DHT22;1487;51.470;6.938;2023-03-16T13:17:24;11.50;80.30
2955;DHT22;1487;51.470;6.938;2023-03-16T13:20:01;11.80;80.20
2955;DHT22;1487;51.470;6.938;2023-03-16T13:22:39;12.10;78.20
2955;DHT22;1487;51.470;6.938;2023-03-16T13:25:14;12.30;78.30
2955;DHT22;1487;51.470;6.938;2023-03-16T13:27:45;12.80;77.90
2955;DHT22;1487;51.470;6.938;2023-03-16T13:30:16;13.20;75.90
2955;DHT22;1487;51.470;6.938;2023-03-16T13:32:44;13.20;75.00
2955;DHT22;1487;51.470;6.938;2023-03-16T13:35:14;13.30;76.40
2955;DHT22;1487;51.470;6.938;2023-03-16T13:37:42;14.20;75.60
2955;DHT22;1487;51.470;6.938;2023-03-16T13:40:17;14.30;72.60
2955;DHT22;1487;51.470;6.938;2023-03-16T13:42:46;14.70;72.20
2955;DHT22;1487;51.470;6.938;2023-03-16T13:45:17;15.10;72.10
2955;DHT22;1487;51.470;6.938;2023-03-16T13:47:46;15.00;68.50
2955;DHT22;1487;51.470;6.938;2023-03-16T13:50:16;14.50;69.20
2955;DHT22;1487;51.470;6.938;2023-03-16T13:52:51;14.40;70.30
2955;DHT22;1487;51.470;6.938;2023-03-16T13:55:25;14.10;70.70
2955;DHT22;1487;51.470;6.938;2023-03-16T13:57:53;14.20;70.40
2955;DHT22;1487;51.470;6.938;2023-03-16T14:00:22;14.60;72.60
2955;DHT22;1487;51.470;6.938;2023-03-16T14:02:52;14.20;70.70
2955;DHT22;1487;51.470;6.938;2023-03-16T14:05:24;14.30;71.20
2955;DHT22;1487;51.470;6.938;2023-03-16T14:07:52;14.30;70.60
2955;DHT22;1487;51.470;6.938;2023-03-16T14:10:20;13.90;70.40
2955;DHT22;1487;51.470;6.938;2023-03-16T14:12:51;13.80;71.80
2955;DHT22;1487;51.470;6.938;2023-03-16T14:15:19;13.70;71.60
2955;DHT22;1487;51.470;6.938;2023-03-16T14:17:46;13.70;71.80
2955;DHT22;1487;51.470;6.938;2023-03-16T14:20:18;13.80;72.80
2955;DHT22;1487;51.470;6.938;2023-03-16T14:22:50;13.70;71.90
2955;DHT22;1487;51.470;6.938;2023-03-16T14:25:20;14.10;72.10
2955;DHT22;1487;51.470;6.938;2023-03-16T14:27:56;14.20;71.30
2955;DHT22;1487;51.470;6.938;2023-03-16T14:30:25;13.90;72.20
2955;DHT22;1487;51.470;6.938;2023-03-16T14:32:54;14.10;72.80
2955;DHT22;1487;51.470;6.938;2023-03-16T14:35:25;14.00;71.70
2955;DHT22;1487;51.470;6.938;2023-03-16T14:37:54;14.40;71.20
2955;DHT22;1487;51.470;6.938;2023-03-16T14:40:25;14.70;72.70
2955;DHT22;1487;51.470;6.938;2023-03-16T14:42:56;14.70;70.40
2955;DHT22;1487;51.470;6.938;2023-03-16T14:45:28;14.60;71.40
2955;DHT22;1487;51.470;6.938;2023-03-16T14:48:02;14.70;70.60
2955;DHT22;1487;51.470;6.938;2023-03-16T14:50:30;14.30;70.10
2955;DHT22;1487;51.470;6.938;2023-03-16T14:52:59;14.00;70.80
2955;DHT22;1487;51.470;6.938;2023-03-16T14:55:28;13.90;71.40
2955;DHT22;1487;51.470;6.938;2023-03-16T14:57:55;13.80;72.30
2955;DHT22;1487;51.470;6.938;2023-03-16T15:00:22;13.90;72.00
2955;DHT22;1487;51.470;6.938;2023-03-16T15:02:57;13.90;72.10
2955;DHT22;1487;51.470;6.938;2023-03-16T15:05:30;14.00;72.70
2955;DHT22;1487;51.470;6.938;2023-03-16T15:07:59;14.40;71.90
2955;DHT22;1487;51.470;6.938;2023-03-16T15:10:29;14.60;71.10
2955;DHT22;1487;51.470;6.938;2023-03-16T15:12:58;14.70;71.20
2955;DHT22;1487;51.470;6.938;2023-03-16T15:15:38;14.60;70.40
2955;DHT22;1487;51.470;6.938;2023-03-16T15:18:07;14.40;70.90
2955;DHT22;1487;51.470;6.938;2023-03-16T15:20:38;14.50;71.40
2955;DHT22;1487;51.470;6.938;2023-03-16T15:23:10;14.30;70.40
2955;DHT22;1487;51.470;6.938;2023-03-16T15:25:39;14.10;70.20
2955;DHT22;1487;51.470;6.938;2023-03-16T15:28:11;13.90;71.40
2955;DHT22;1487;51.470;6.938;2023-03-16T15:30:38;13.50;70.80
2955;DHT22;1487;51.470;6.938;2023-03-16T15:33:07;13.20;71.30
2955;DHT22;1487;51.470;6.938;2023-03-16T15:35:33;12.90;71.10
2955;DHT22;1487;51.470;6.938;2023-03-16T15:38:04;12.80;71.40
2955;DHT22;1487;51.470;6.938;2023-03-16T15:40:34;12.70;71.80
2955;DHT22;1487;51.470;6.938;2023-03-16T15:43:02;12.60;72.50
2955;DHT22;1487;51.470;6.938;2023-03-16T15:45:29;12.60;72.30
2955;DHT22;1487;51.470;6.938;2023-03-16T15:47:56;12.50;72.00
2955;DHT22;1487;51.470;6.938;2023-03-16T15:50:24;12.30;72.80
2955;DHT22;1487;51.470;6.938;2023-03-16T15:52:54;12.20;73.00
2955;DHT22;1487;51.470;6.938;2023-03-16T15:55:25;12.20;73.20
2955;DHT22;1487;51.470;6.938;2023-03-16T15:57:56;12.20;73.80
2955;DHT22;1487;51.470;6.938;2023-03-16T16:00:28;12.20;73.30
2955;DHT22;1487;51.470;6.938;2023-03-16T16:02:56;12.10;73.70
2955;DHT22;1487;51.470;6.938;2023-03-16T16:05:23;12.00;74.60
2955;DHT22;1487;51.470;6.938;2023-03-16T16:07:50;12.00;74.40
2955;DHT22;1487;51.470;6.938;2023-03-16T16:10:18;11.90;74.10
2955;DHT22;1487;51.470;6.938;2023-03-16T16:12:46;11.90;74.40
2955;DHT22;1487;51.470;6.938;2023-03-16T16:15:22;11.80;73.70
2955;DHT22;1487;51.470;6.938;2023-03-16T16:17:50;11.70;74.00
2955;DHT22;1487;51.470;6.938;2023-03-16T16:20:19;11.70;74.50
2955;DHT22;1487;51.470;6.938;2023-03-16T16:22:47;11.60;74.40
2955;DHT22;1487;51.470;6.938;2023-03-16T16:25:14;11.60;75.30
2955;DHT22;1487;51.470;6.938;2023-03-16T16:27:41;11.60;75.70
2955;DHT22;1487;51.470;6.938;2023-03-16T16:30:21;11.60;75.90
2955;DHT22;1487;51.470;6.938;2023-03-16T16:32:48;11.60;75.70